Monday, January 22, 2018, 8:55 AM EST
Back to Local

K40B, Clayton Lake

Location: Ashland, ME, United States Lat: 46.617
Local Time: 8:55 AM EST (13:55 GMT) Lon: -69.533
Time Zone: US/Eastern Elev: 1030 ft

Show me the last for .
Show Decoded

2018-01-22 08:16 METAR K40B 221316Z AUTO 00000KT M15/M18 A3035 RMK AO1 SLP319 T11511176 52023 =
2018-01-22 07:16 METAR K40B 221216Z AUTO 00000KT M16/M18 A3032 RMK AO1 SLP310 T11641182 11126
                 21165 53017 70001 =
2018-01-22 06:16 METAR K40B 221116Z AUTO 00000KT M16/M18 A3029 RMK AO1 SLP300 T11591182 52014 =
2018-01-22 05:16 METAR K40B 221016Z AUTO 00000KT M13/M16 A3028 RMK AO1 SLP293 T11331164 52013 =
2018-01-22 04:16 METAR K40B 220916Z AUTO 00000KT M13/M16 A3027 RMK AO1 SLP289 T11321160 52016 =
2018-01-22 03:16 METAR K40B 220816Z AUTO 00000KT M13/M16 A3025 RMK AO1 SLP282 T11331162 53015 =
2018-01-22 02:16 METAR K40B 220716Z AUTO 00000KT M13/M17 A3024 RMK AO1 SLP277 T11301167 53012 =
2018-01-22 01:16 METAR K40B 220616Z AUTO 00000KT M13/M17 A3022 RMK AO1 SLP270 T11281166 11104
                 21142 53011 60000 =
2018-01-22 00:16 METAR K40B 220516Z AUTO 00000KT M13/M17 A3020 RMK AO1 SLP263 T11271167 410521159
                 52008 =
2018-01-21 23:16 METAR K40B 220416Z AUTO 00000KT M13/M17 A3020 RMK AO1 SLP262 T11341174 51014 =
2018-01-21 22:16 METAR K40B 220316Z AUTO 00000KT M14/M17 A3018 RMK AO1 SLP255 T11381173 51014
                 P0000 60000 =
2018-01-21 21:16 METAR K40B 220216Z AUTO 00000KT M12/M18 A3018 RMK AO1 SLP253 T11251177 51021 =
2018-01-21 20:16 METAR K40B 220116Z AUTO 00000KT M11/M15 A3016 RMK AO1 SLP247 T11071149 51022 =
2018-01-21 19:16 METAR K40B 220016Z AUTO VRB03KT M11/M15 A3014 RMK AO1 SLP241 T11061151 11052
                 21108 51030 =
2018-01-21 18:16 METAR K40B 212316Z AUTO 00000KT M10/M15 A3011 RMK AO1 SLP232 T11031153 51029 =
2018-01-21 17:16 METAR K40B 212216Z AUTO VRB02KT M09/M16 A3009 RMK AO1 SLP226 T10891156 53032 =
2018-01-21 16:16 METAR K40B 212116Z AUTO 00000KT M08/M16 A3005 RMK AO1 SLP213 T10751161 53021 =
2018-01-21 15:16 METAR K40B 212016Z AUTO VRB04G11KT M06/M15 A3003 RMK AO1 SLP203 T10601154 53012
                 =
2018-01-21 14:16 METAR K40B 211916Z AUTO VRB04G13KT M06/M15 A3000 RMK AO1 SLP195 T10601154 52003
                 =
2018-01-21 13:16 METAR K40B 211816Z AUTO VRB05G14KT M05/M16 A2999 RMK AO1 SLP193 T10551161 11053
                 21159 55006 60001 =
2018-01-21 12:16 METAR K40B 211716Z AUTO VRB04G13KT M06/M16 A2999 RMK AO1 SLP192 T10601159 57005
                 =
2018-01-21 11:16 METAR K40B 211616Z AUTO VRB06G15KT M06/M17 A2999 RMK AO1 SLP194 T10651169 50003
                 =
2018-01-21 10:16 METAR K40B 211516Z AUTO VRB05G11KT M08/M15 A3001 RMK AO1 SLP199 T10791154 52014
                 60001 =
2018-01-21 09:16 METAR K40B 211416Z AUTO VRB05KT M11/M14 A3000 RMK AO1 SLP196 T11081144 51023
                 P0001 =

Support USWX by starting your Amazon purchase here.